Time;durP1;ratioP1;P1;durP2;ratioP2;P2;SDS_P1;SDS_P2;PMS_P1;PMS_P2;Temp;Humidity;BMP_temperature;BMP_pressure;BME280_temperature;BME280_humidity;BME280_pressure;Samples;Min_cycle;Max_cycle;Signal;HPM_P1;HPM_P2
2022/07/18 00:00:46;;;;;;;3.20;1.70;;;15.60;81.00;;;;;;5081591;28;20257;-78
2022/07/18 00:03:11;;;;;;;1.80;1.07;;;15.50;80.90;;;;;;5089013;28;20565;-78
2022/07/18 00:05:37;;;;;;;2.17;1.10;;;15.40;80.80;;;;;;5071469;28;20192;-73
2022/07/18 00:08:03;;;;;;;3.60;1.57;;;15.30;80.80;;;;;;5070686;28;20266;-76
2022/07/18 00:10:28;;;;;;;1.80;0.80;;;15.30;80.90;;;;;;5076436;28;20184;-78
2022/07/18 00:12:54;;;;;;;2.17;0.90;;;15.30;81.30;;;;;;5075036;28;20269;-78
2022/07/18 00:15:20;;;;;;;2.73;1.20;;;15.30;81.20;;;;;;5078600;28;20673;-77
2022/07/18 00:17:45;;;;;;;2.60;0.90;;;15.30;81.50;;;;;;5068810;28;20259;-78
2022/07/18 00:20:11;;;;;;;2.73;1.10;;;15.20;82.20;;;;;;5067949;28;20208;-78
2022/07/18 00:22:37;;;;;;;2.43;1.13;;;15.10;82.50;;;;;;5069331;28;20289;-74
2022/07/18 00:25:03;;;;;;;2.47;1.10;;;15.10;82.20;;;;;;5070384;28;20193;-76
2022/07/18 00:27:29;;;;;;;1.90;0.90;;;15.00;82.50;;;;;;5070769;28;20181;-78
2022/07/18 00:29:55;;;;;;;2.97;1.47;;;15.00;82.90;;;;;;5070853;28;20916;-78
2022/07/18 00:32:20;;;;;;;2.50;1.37;;;15.00;82.90;;;;;;5070365;28;20177;-77
2022/07/18 00:34:46;;;;;;;4.17;0.97;;;15.00;83.00;;;;;;5070643;28;20625;-78
2022/07/18 00:37:11;;;;;;;2.80;1.77;;;15.00;83.70;;;;;;5070572;28;20188;-78
2022/07/18 00:39:38;;;;;;;3.43;1.47;;;15.00;83.90;;;;;;5070067;28;20209;-76
2022/07/18 00:42:03;;;;;;;4.03;1.47;;;15.00;84.50;;;;;;5070417;28;20180;-78
2022/07/18 00:44:29;;;;;;;2.03;1.00;;;15.00;84.40;;;;;;5070155;28;20525;-78
2022/07/18 00:46:58;;;;;;;2.23;1.10;;;14.90;84.50;;;;;;5052728;28;20190;-77
2022/07/18 00:49:24;;;;;;;10.03;1.10;;;14.90;84.80;;;;;;5070055;28;20181;-78
2022/07/18 00:51:51;;;;;;;3.03;1.30;;;14.80;85.50;;;;;;5070341;28;20802;-78
2022/07/18 00:54:17;;;;;;;2.43;1.20;;;14.80;85.60;;;;;;5070050;28;20530;-78
2022/07/18 00:56:44;;;;;;;1.60;0.90;;;14.70;85.80;;;;;;5079232;28;20415;-77
2022/07/18 00:59:11;;;;;;;2.53;0.87;;;14.70;85.40;;;;;;5066765;28;20463;-78
2022/07/18 01:01:46;;;;;;;2.60;1.27;;;14.70;85.50;;;;;;5069591;28;20415;-78
2022/07/18 01:04:22;;;;;;;2.33;1.20;;;14.70;84.90;;;;;;5069998;28;21080;-78
2022/07/18 01:06:50;;;;;;;2.60;0.90;;;14.70;84.90;;;;;;5068912;28;20943;-77
2022/07/18 01:09:16;;;;;;;2.43;1.03;;;14.70;84.70;;;;;;5069627;28;20422;-78
2022/07/18 01:11:44;;;;;;;1.83;0.80;;;14.60;84.50;;;;;;5069823;28;20444;-77
2022/07/18 01:14:10;;;;;;;1.83;0.90;;;14.70;84.20;;;;;;5068816;28;20447;-77
2022/07/18 01:16:36;;;;;;;3.20;1.00;;;14.70;82.20;;;;;;5070068;28;20431;-77
2022/07/18 01:19:03;;;;;;;5.93;1.50;;;14.60;83.00;;;;;;5070168;28;20524;-77
2022/07/18 01:21:28;;;;;;;1.70;0.90;;;14.60;83.30;;;;;;5070256;28;20181;-77
2022/07/18 01:23:54;;;;;;;2.83;1.10;;;14.60;83.50;;;;;;5059307;28;20523;-77
2022/07/18 01:26:20;;;;;;;1.80;0.80;;;14.60;83.50;;;;;;5069992;28;20177;-77
2022/07/18 01:28:46;;;;;;;5.53;1.17;;;14.50;83.20;;;;;;5069954;28;20235;-78
2022/07/18 01:31:12;;;;;;;2.30;1.00;;;14.50;83.40;;;;;;5069616;28;20193;-76
2022/07/18 01:33:38;;;;;;;2.40;1.20;;;14.40;83.80;;;;;;5069643;28;20449;-77
2022/07/18 01:36:05;;;;;;;1.87;0.90;;;14.40;83.70;;;;;;5069995;28;20169;-78
2022/07/18 01:38:33;;;;;;;2.37;0.93;;;14.30;83.60;;;;;;5069542;28;20729;-77
2022/07/18 01:40:58;;;;;;;2.93;1.20;;;14.20;83.10;;;;;;5069621;28;20423;-75
2022/07/18 01:43:25;;;;;;;3.93;0.80;;;14.20;83.50;;;;;;5069635;28;20444;-77
2022/07/18 01:45:51;;;;;;;2.67;1.00;;;14.20;82.70;;;;;;5068374;28;20193;-78
2022/07/18 01:48:17;;;;;;;3.30;1.07;;;14.20;83.10;;;;;;5069658;28;20943;-78
2022/07/18 01:50:43;;;;;;;1.97;0.80;;;14.20;82.70;;;;;;5070080;28;20434;-78
2022/07/18 01:53:09;;;;;;;2.30;1.00;;;14.10;82.90;;;;;;5069227;28;20427;-74
2022/07/18 01:55:34;;;;;;;2.20;0.90;;;14.10;83.50;;;;;;5076230;28;20256;-78
2022/07/18 01:58:00;;;;;;;2.23;1.00;;;14.10;84.00;;;;;;5075532;28;20200;-78
2022/07/18 02:00:26;;;;;;;3.97;1.07;;;14.20;84.00;;;;;;5072118;28;20231;-77
2022/07/18 02:02:52;;;;;;;1.70;0.80;;;14.20;82.00;;;;;;5072151;28;20570;-78
2022/07/18 02:05:18;;;;;;;2.77;1.33;;;14.10;82.90;;;;;;5073317;28;20454;-78
2022/07/18 02:07:44;;;;;;;2.43;1.07;;;14.10;83.10;;;;;;5069757;28;20182;-77
2022/07/18 02:10:14;;;;;;;1.90;1.00;;;14.10;82.60;;;;;;5072592;28;20946;-78
2022/07/18 02:12:40;;;;;;;1.50;0.73;;;14.10;82.60;;;;;;5072959;28;20268;-78
2022/07/18 02:15:07;;;;;;;2.10;1.00;;;14.10;82.30;;;;;;5071084;28;20530;-78
2022/07/18 02:17:33;;;;;;;1.87;0.90;;;14.00;82.50;;;;;;5070591;28;20185;-78
2022/07/18 02:19:58;;;;;;;2.30;1.10;;;14.00;82.90;;;;;;5072337;28;20467;-77
2022/07/18 02:22:24;;;;;;;4.37;1.10;;;13.90;83.10;;;;;;5070449;28;20208;-77
2022/07/18 02:24:51;;;;;;;1.60;0.93;;;13.90;83.60;;;;;;5071570;28;20259;-77
2022/07/18 02:27:17;;;;;;;5.03;1.30;;;13.90;84.40;;;;;;5073215;28;20255;-78
2022/07/18 02:29:43;;;;;;;3.30;1.03;;;13.90;84.00;;;;;;5072891;28;20518;-78
2022/07/18 02:32:08;;;;;;;1.70;0.87;;;13.90;84.80;;;;;;5072881;28;20235;-77
2022/07/18 02:34:34;;;;;;;5.03;1.37;;;13.80;85.20;;;;;;5073577;28;20436;-77
2022/07/18 02:37:00;;;;;;;2.00;1.10;;;13.80;85.70;;;;;;5073106;28;20184;-78
2022/07/18 02:39:26;;;;;;;2.43;1.00;;;13.70;85.50;;;;;;5072480;28;20204;-77
2022/07/18 02:41:51;;;;;;;2.73;1.03;;;13.70;85.50;;;;;;5072880;28;20192;-77
2022/07/18 02:44:17;;;;;;;1.70;0.80;;;13.70;85.60;;;;;;5071556;28;20224;-77
2022/07/18 02:46:43;;;;;;;1.83;0.80;;;13.70;85.20;;;;;;5072876;28;20196;-77
2022/07/18 02:49:09;;;;;;;1.60;0.80;;;13.70;84.60;;;;;;5072873;28;20242;-77
2022/07/18 02:51:34;;;;;;;2.53;0.93;;;13.60;84.70;;;;;;5071329;28;20212;-76
2022/07/18 02:54:00;;;;;;;1.83;1.00;;;13.60;84.60;;;;;;5072782;28;20259;-78
2022/07/18 02:56:26;;;;;;;1.60;0.73;;;13.60;84.30;;;;;;5086334;28;20184;-78
2022/07/18 02:58:52;;;;;;;2.80;1.17;;;13.60;84.20;;;;;;5066681;28;20212;-77
2022/07/18 03:01:17;;;;;;;3.77;1.10;;;13.60;84.40;;;;;;5070271;28;20649;-78
2022/07/18 03:03:43;;;;;;;4.27;0.90;;;13.60;84.30;;;;;;5071590;28;20201;-78
2022/07/18 03:06:08;;;;;;;2.63;1.17;;;13.50;84.80;;;;;;5072391;28;20196;-75
2022/07/18 03:08:34;;;;;;;1.60;0.77;;;13.40;85.90;;;;;;5071345;28;20661;-78
2022/07/18 03:11:00;;;;;;;3.43;1.20;;;13.40;86.10;;;;;;5070908;28;20203;-77
2022/07/18 03:13:25;;;;;;;1.40;0.70;;;13.30;86.10;;;;;;5072279;28;20279;-77
2022/07/18 03:15:51;;;;;;;8.40;1.50;;;13.30;86.30;;;;;;5070965;28;20184;-78
2022/07/18 03:18:17;;;;;;;2.60;1.17;;;13.20;86.70;;;;;;5072354;28;20177;-77
2022/07/18 03:20:43;;;;;;;4.13;1.07;;;13.20;87.40;;;;;;5072076;28;20255;-77
2022/07/18 03:23:09;;;;;;;2.13;1.03;;;13.20;87.60;;;;;;5071132;28;20177;-74
2022/07/18 03:25:35;;;;;;;1.70;0.80;;;13.20;87.80;;;;;;5072295;28;20447;-77
2022/07/18 03:28:01;;;;;;;2.73;1.67;;;13.20;88.00;;;;;;5070958;28;20520;-78
2022/07/18 03:30:26;;;;;;;2.37;1.10;;;13.20;88.70;;;;;;5071822;28;20181;-77
2022/07/18 03:32:52;;;;;;;2.40;1.13;;;13.20;88.10;;;;;;5071675;28;20632;-77
2022/07/18 03:35:18;;;;;;;3.20;1.23;;;13.10;88.40;;;;;;5071631;28;20209;-78
2022/07/18 03:37:43;;;;;;;2.07;0.90;;;13.10;88.60;;;;;;5071918;28;20276;-77
2022/07/18 03:40:10;;;;;;;2.60;0.93;;;13.10;89.20;;;;;;5070205;28;20295;-77
2022/07/18 03:42:39;;;;;;;2.73;1.10;;;13.10;89.20;;;;;;5071438;28;20281;-77
2022/07/18 03:45:07;;;;;;;1.93;0.83;;;13.10;88.00;;;;;;5071646;28;20436;-78
2022/07/18 03:47:33;;;;;;;3.60;1.07;;;13.10;88.00;;;;;;5071635;28;20411;-78
2022/07/18 03:49:58;;;;;;;1.57;0.80;;;13.00;86.50;;;;;;5071320;28;20889;-78
2022/07/18 03:52:24;;;;;;;3.07;1.10;;;13.00;86.00;;;;;;5071111;28;20811;-77
2022/07/18 03:54:50;;;;;;;1.70;0.70;;;13.10;86.20;;;;;;5070089;28;20209;-78
2022/07/18 03:57:15;;;;;;;1.70;0.80;;;13.10;85.50;;;;;;5071165;28;20669;-74
2022/07/18 03:59:41;;;;;;;1.80;0.93;;;13.10;85.50;;;;;;5071027;28;20232;-78
2022/07/18 04:02:07;;;;;;;2.83;1.20;;;13.10;85.50;;;;;;5071096;28;20181;-78
2022/07/18 04:04:32;;;;;;;4.37;1.30;;;13.10;85.70;;;;;;5084438;28;20200;-78
2022/07/18 04:06:59;;;;;;;1.63;0.80;;;13.10;86.30;;;;;;5070697;28;20181;-78
2022/07/18 04:09:26;;;;;;;6.33;1.57;;;13.10;87.20;;;;;;5070475;28;20677;-77
2022/07/18 04:11:51;;;;;;;3.57;1.37;;;13.10;87.40;;;;;;5070809;28;20423;-77
2022/07/18 04:14:17;;;;;;;2.07;1.10;;;13.10;87.90;;;;;;5071548;28;20462;-77
2022/07/18 04:16:43;;;;;;;1.70;0.83;;;13.00;87.90;;;;;;5080621;28;20606;-77
2022/07/18 04:19:09;;;;;;;2.47;0.90;;;13.10;88.00;;;;;;5089956;28;20304;-77
2022/07/18 04:21:35;;;;;;;5.47;1.33;;;13.10;86.90;;;;;;5096656;28;20458;-78
2022/07/18 04:24:01;;;;;;;5.43;1.33;;;13.10;86.40;;;;;;5089881;28;20197;-78
2022/07/18 04:26:26;;;;;;;1.90;0.97;;;13.10;86.30;;;;;;5089241;28;20237;-78
2022/07/18 04:28:52;;;;;;;9.43;1.30;;;13.10;86.10;;;;;;5076901;28;20215;-78
2022/07/18 04:31:18;;;;;;;2.33;1.10;;;13.20;86.20;;;;;;5071235;28;20736;-78
2022/07/18 04:33:44;;;;;;;1.60;0.87;;;13.20;87.00;;;;;;5072134;28;20201;-78
2022/07/18 04:36:10;;;;;;;3.43;1.20;;;13.20;87.10;;;;;;5074280;28;20404;-78
2022/07/18 04:38:37;;;;;;;9.13;1.90;;;13.30;87.30;;;;;;5073645;28;20177;-79
2022/07/18 04:41:04;;;;;;;1.80;0.80;;;13.30;87.30;;;;;;5073113;28;20216;-77
2022/07/18 04:43:30;;;;;;;2.63;1.20;;;13.30;88.70;;;;;;5073912;28;20439;-78
2022/07/18 04:45:56;;;;;;;2.23;1.10;;;13.40;87.40;;;;;;5072209;28;20430;-78
2022/07/18 04:48:21;;;;;;;2.77;0.80;;;13.50;87.60;;;;;;5071302;28;20416;-78
2022/07/18 04:50:47;;;;;;;3.30;1.10;;;13.60;87.60;;;;;;5071046;28;20180;-78
2022/07/18 04:53:13;;;;;;;11.30;1.83;;;13.60;88.60;;;;;;5070754;28;20166;-78
2022/07/18 04:55:38;;;;;;;3.13;1.33;;;13.70;88.90;;;;;;5077639;28;20256;-78
2022/07/18 04:58:04;;;;;;;2.97;1.93;;;13.70;88.10;;;;;;5074209;28;20285;-76
2022/07/18 05:00:30;;;;;;;2.87;1.33;;;13.80;87.70;;;;;;5070578;28;20843;-77
2022/07/18 05:02:57;;;;;;;7.43;1.10;;;13.90;85.90;;;;;;5067203;28;20180;-77
2022/07/18 05:05:25;;;;;;;2.27;1.07;;;14.00;85.60;;;;;;5070744;28;20254;-78
2022/07/18 05:07:51;;;;;;;2.60;1.20;;;14.00;84.80;;;;;;5070135;28;20412;-77
2022/07/18 05:10:19;;;;;;;4.33;1.23;;;14.10;85.30;;;;;;5069813;28;20422;-77
2022/07/18 05:12:46;;;;;;;3.60;1.43;;;14.20;86.50;;;;;;5068584;28;20505;-77
2022/07/18 05:15:14;;;;;;;2.53;0.80;;;14.30;87.40;;;;;;5068608;28;20469;-77
2022/07/18 05:17:40;;;;;;;2.30;0.90;;;14.40;87.60;;;;;;5070565;28;20577;-78
2022/07/18 05:20:08;;;;;;;9.13;1.40;;;14.40;86.90;;;;;;5069707;28;20508;-78
2022/07/18 05:22:35;;;;;;;5.67;1.37;;;14.50;86.80;;;;;;5070116;28;20412;-77
2022/07/18 05:25:02;;;;;;;6.47;1.57;;;14.60;86.80;;;;;;5070253;28;20431;-77
2022/07/18 05:27:28;;;;;;;3.00;1.27;;;14.70;83.40;;;;;;5070729;28;20565;-77
2022/07/18 05:29:54;;;;;;;8.47;1.40;;;14.80;84.10;;;;;;5070357;28;20898;-77
2022/07/18 05:32:19;;;;;;;3.27;1.53;;;14.90;82.50;;;;;;5068816;28;20566;-78
2022/07/18 05:34:45;;;;;;;8.10;1.27;;;15.00;84.00;;;;;;5070341;28;20220;-78
2022/07/18 05:37:11;;;;;;;1.80;0.87;;;15.10;84.80;;;;;;5083215;28;20267;-77
2022/07/18 05:39:36;;;;;;;4.00;1.53;;;15.20;85.00;;;;;;5083339;28;20247;-77
2022/07/18 05:42:03;;;;;;;3.40;1.43;;;15.30;85.00;;;;;;5071351;28;20556;-78
2022/07/18 05:44:29;;;;;;;3.20;1.27;;;15.40;85.80;;;;;;5074429;28;20199;-78
2022/07/18 05:46:54;;;;;;;2.50;1.13;;;15.50;84.70;;;;;;5079353;28;20411;-78
2022/07/18 05:49:20;;;;;;;12.30;1.90;;;15.60;82.70;;;;;;5074568;28;20593;-77
2022/07/18 05:51:45;;;;;;;5.30;1.27;;;15.70;80.10;;;;;;5081965;28;20187;-79
2022/07/18 05:54:11;;;;;;;4.20;1.50;;;15.80;80.30;;;;;;5096673;28;20199;-79
2022/07/18 05:56:37;;;;;;;3.40;1.33;;;16.10;81.70;;;;;;5100232;28;20195;-78
2022/07/18 05:59:04;;;;;;;3.83;2.07;;;16.20;82.00;;;;;;5112029;28;20470;-79
2022/07/18 06:01:30;;;;;;;11.63;1.70;;;16.20;82.60;;;;;;5101953;28;20189;-79
2022/07/18 06:03:55;;;;;;;7.43;1.27;;;16.30;81.30;;;;;;5110178;28;20438;-79
2022/07/18 06:06:21;;;;;;;3.60;1.10;;;16.40;80.60;;;;;;5107354;28;20184;-79
2022/07/18 06:08:46;;;;;;;3.80;1.40;;;16.50;79.90;;;;;;5091541;28;20250;-77
2022/07/18 06:11:12;;;;;;;4.87;2.00;;;16.60;79.70;;;;;;5076494;28;20238;-77
2022/07/18 06:13:40;;;;;;;3.73;1.37;;;16.70;80.20;;;;;;5079439;28;20696;-78
2022/07/18 06:16:06;;;;;;;2.17;1.10;;;16.80;81.40;;;;;;5058249;28;20232;-76
2022/07/18 06:18:34;;;;;;;7.80;2.13;;;16.90;80.90;;;;;;5073475;28;20807;-78
2022/07/18 06:21:03;;;;;;;14.13;2.00;;;17.00;79.90;;;;;;5083743;28;20462;-76
2022/07/18 06:23:29;;;;;;;4.50;1.10;;;17.10;79.40;;;;;;5081088;28;20435;-78
2022/07/18 06:25:56;;;;;;;1.67;0.83;;;17.20;78.70;;;;;;5082534;28;20792;-78
2022/07/18 06:28:22;;;;;;;4.30;1.80;;;17.30;78.10;;;;;;5080456;28;20781;-78
2022/07/18 06:30:48;;;;;;;2.13;0.93;;;17.50;76.00;;;;;;5083857;28;20907;-78
2022/07/18 06:33:13;;;;;;;2.27;0.90;;;17.60;76.40;;;;;;5082358;28;20448;-78
2022/07/18 06:35:40;;;;;;;3.83;1.00;;;17.70;74.30;;;;;;5075191;28;20196;-78
2022/07/18 06:38:06;;;;;;;3.23;1.30;;;17.90;73.30;;;;;;5078114;28;20676;-80
2022/07/18 06:40:32;;;;;;;4.50;1.30;;;18.00;73.40;;;;;;5069238;28;20944;-76
2022/07/18 06:42:58;;;;;;;3.70;1.07;;;18.20;73.40;;;;;;5069539;28;20419;-78
2022/07/18 06:45:23;;;;;;;2.40;1.17;;;18.30;73.40;;;;;;5077634;28;20212;-79
2022/07/18 06:47:49;;;;;;;3.47;1.13;;;18.40;73.70;;;;;;5087365;28;20500;-79
2022/07/18 06:50:15;;;;;;;5.83;1.20;;;18.60;73.70;;;;;;5089019;28;20224;-79
2022/07/18 06:52:42;;;;;;;7.80;1.20;;;18.70;72.50;;;;;;5078753;28;20177;-77
2022/07/18 06:55:08;;;;;;;2.57;1.10;;;18.90;72.80;;;;;;5075383;28;21211;-79
2022/07/18 06:57:34;;;;;;;3.00;1.10;;;19.10;74.30;;;;;;5075078;28;20448;-78
2022/07/18 06:59:59;;;;;;;3.07;1.33;;;19.20;71.30;;;;;;5065590;28;20490;-79
2022/07/18 07:02:26;;;;;;;3.17;1.20;;;19.50;69.50;;;;;;5072270;28;20315;-78
2022/07/18 07:04:51;;;;;;;2.50;1.10;;;19.70;70.50;;;;;;5080459;28;20200;-78
2022/07/18 07:07:18;;;;;;;3.33;1.30;;;19.90;70.80;;;;;;5079655;28;20987;-78
2022/07/18 07:09:43;;;;;;;6.93;1.57;;;20.20;69.50;;;;;;5083539;28;20722;-79
2022/07/18 07:12:09;;;;;;;2.83;1.43;;;20.50;67.50;;;;;;5080959;28;20453;-79
2022/07/18 07:14:36;;;;;;;13.53;1.30;;;20.80;66.00;;;;;;5084929;28;20213;-76
2022/07/18 07:17:02;;;;;;;10.53;1.40;;;21.10;67.50;;;;;;5070461;28;20512;-79
2022/07/18 07:19:28;;;;;;;3.57;1.33;;;21.30;66.20;;;;;;5076032;28;20462;-78
2022/07/18 07:21:54;;;;;;;3.60;1.40;;;21.60;64.70;;;;;;5072169;28;20596;-77
2022/07/18 07:24:20;;;;;;;2.80;0.90;;;21.90;63.40;;;;;;5076566;28;20633;-76
2022/07/18 07:26:45;;;;;;;2.83;1.30;;;22.30;62.30;;;;;;5075604;28;20279;-79
2022/07/18 07:29:11;;;;;;;2.10;1.03;;;22.50;61.70;;;;;;5081322;28;20184;-78
2022/07/18 07:31:37;;;;;;;4.07;1.13;;;23.10;60.70;;;;;;5087149;28;20184;-75
2022/07/18 07:34:03;;;;;;;6.43;2.00;;;23.40;62.70;;;;;;5074051;28;20196;-78
2022/07/18 07:36:28;;;;;;;3.07;1.40;;;23.80;63.20;;;;;;5082067;28;20193;-80
2022/07/18 07:38:55;;;;;;;2.47;1.43;;;24.30;63.70;;;;;;5078406;28;20188;-78
2022/07/18 07:41:20;;;;;;;4.00;1.90;;;24.90;61.20;;;;;;5081332;28;20181;-80
2022/07/18 07:43:46;;;;;;;5.17;1.37;;;25.60;60.10;;;;;;5080325;28;20442;-79
2022/07/18 07:46:12;;;;;;;5.28;1.20;;;26.60;58.80;;;;;;5079008;28;20308;-80
2022/07/18 07:48:38;;;;;;;4.32;1.40;;;28.40;53.80;;;;;;5080237;28;20185;-76
2022/07/18 07:51:04;;;;;;;2.47;1.45;;;29.10;52.70;;;;;;5081264;28;20561;-80
2022/07/18 07:53:30;;;;;;;3.10;1.60;;;30.20;48.70;;;;;;5078459;28;20776;-79
2022/07/18 07:55:57;;;;;;;6.65;1.65;;;30.50;47.30;;;;;;5083963;28;20653;-79
2022/07/18 07:58:22;;;;;;;2.83;1.50;;;31.70;46.90;;;;;;5076814;28;20203;-79
2022/07/18 08:00:48;;;;;;;5.20;1.23;;;31.60;46.60;;;;;;5071145;28;20216;-79
2022/07/18 08:03:14;;;;;;;3.75;1.63;;;31.60;47.30;;;;;;5073853;28;21809;-77
2022/07/18 08:05:48;;;;;;;4.68;1.52;;;31.80;46.20;;;;;;5069733;28;20576;-78
2022/07/18 08:08:14;;;;;;;2.95;1.27;;;31.60;44.10;;;;;;5074148;28;20280;-78
2022/07/18 08:10:41;;;;;;;3.80;2.42;;;32.00;45.80;;;;;;5075382;28;20219;-79
2022/07/18 08:13:06;;;;;;;2.83;1.55;;;32.80;43.40;;;;;;5077872;28;20184;-75
2022/07/18 08:15:32;;;;;;;5.88;1.65;;;32.90;44.10;;;;;;5073843;28;20191;-79
2022/07/18 08:17:59;;;;;;;3.13;1.73;;;34.20;43.30;;;;;;5076098;28;20207;-80
2022/07/18 08:20:25;;;;;;;3.83;1.45;;;33.60;43.30;;;;;;5087457;28;20192;-79
2022/07/18 08:22:59;;;;;;;3.90;2.67;;;33.20;42.60;;;;;;5075174;28;20253;-79
2022/07/18 08:25:26;;;;;;;1.70;0.93;;;33.10;44.30;;;;;;5072277;28;20249;-80
2022/07/18 08:27:52;;;;;;;2.10;1.20;;;32.90;43.70;;;;;;5083265;28;20225;-80
2022/07/18 08:30:17;;;;;;;2.75;1.52;;;32.90;43.10;;;;;;5080925;28;20266;-80
2022/07/18 08:32:43;;;;;;;2.58;1.20;;;33.20;43.80;;;;;;5075026;28;20184;-78
2022/07/18 08:35:09;;;;;;;4.20;1.15;;;32.90;44.50;;;;;;5077550;28;20220;-79
2022/07/18 08:37:35;;;;;;;3.13;1.65;;;33.20;41.90;;;;;;5081856;28;20637;-79
2022/07/18 08:40:00;;;;;;;2.85;1.30;;;33.70;42.60;;;;;;5071723;28;20216;-80
2022/07/18 08:42:27;;;;;;;3.15;1.40;;;33.40;42.30;;;;;;5079194;28;20183;-80
2022/07/18 08:44:55;;;;;;;2.63;1.25;;;33.20;41.10;;;;;;5077174;28;20242;-80
2022/07/18 08:47:21;;;;;;;3.45;1.00;;;33.20;40.50;;;;;;5078639;28;20180;-80
2022/07/18 08:49:48;;;;;;;1.92;1.02;;;33.00;41.20;;;;;;5078231;28;20189;-81
2022/07/18 08:52:15;;;;;;;1.85;1.00;;;33.20;40.60;;;;;;5079002;28;20188;-79
2022/07/18 08:54:42;;;;;;;4.72;1.98;;;33.30;42.00;;;;;;5075935;28;20656;-76
2022/07/18 08:57:09;;;;;;;4.20;1.45;;;33.00;41.40;;;;;;5084233;28;20282;-79
2022/07/18 08:59:34;;;;;;;3.05;1.98;;;32.60;41.20;;;;;;5080254;28;20237;-79
2022/07/18 09:02:00;;;;;;;4.75;1.35;;;32.80;41.40;;;;;;5077370;28;20177;-79
2022/07/18 09:04:38;;;;;;;6.10;1.63;;;32.70;41.10;;;;;;5073647;28;20203;-80
2022/07/18 09:07:05;;;;;;;6.82;1.55;;;32.70;38.30;;;;;;5065838;28;20164;-80
2022/07/18 09:09:31;;;;;;;4.18;1.42;;;32.90;40.50;;;;;;5074975;28;20188;-79
2022/07/18 09:12:03;;;;;;;2.08;1.23;;;33.30;36.50;;;;;;5078253;28;20180;-79
2022/07/18 09:14:38;;;;;;;5.07;1.30;;;33.40;36.60;;;;;;5071602;28;20283;-79
2022/07/18 09:17:09;;;;;;;2.60;1.70;;;33.10;37.20;;;;;;5075786;28;20573;-80
2022/07/18 09:19:37;;;;;;;7.68;1.67;;;32.80;38.00;;;;;;5069301;28;20208;-80
2022/07/18 09:22:16;;;;;;;2.95;1.20;;;32.70;38.00;;;;;;5085734;28;20180;-79
2022/07/18 09:24:57;;;;;;;3.45;1.17;;;32.70;38.90;;;;;;5083205;28;20636;-78
2022/07/18 09:27:35;;;;;;;2.03;1.02;;;32.10;39.10;;;;;;5077003;28;20202;-78
2022/07/18 09:30:11;;;;;;;3.10;1.38;;;32.10;39.40;;;;;;5084140;28;20230;-79
2022/07/18 09:32:38;;;;;;;3.13;1.60;;;32.10;40.20;;;;;;5080898;28;20260;-79
2022/07/18 09:35:16;;;;;;;2.30;1.40;;;32.10;39.10;;;;;;5071917;28;20287;-79
2022/07/18 09:38:11;;;;;;;2.25;1.10;;;31.80;37.90;;;;;;5083983;28;20190;-79
2022/07/18 09:40:45;;;;;;;3.90;1.33;;;31.50;40.50;;;;;;5080470;28;20203;-79
2022/07/18 09:43:16;;;;;;;3.00;1.30;;;32.10;39.00;;;;;;5074015;28;20198;-79
2022/07/18 09:45:47;;;;;;;1.73;0.93;;;32.20;39.80;;;;;;5069957;28;20175;-80
2022/07/18 09:48:18;;;;;;;9.02;1.80;;;32.00;39.40;;;;;;5076138;28;20253;-79
2022/07/18 09:50:55;;;;;;;5.85;2.00;;;32.20;40.20;;;;;;5082206;28;20183;-79
2022/07/18 09:53:29;;;;;;;4.07;1.20;;;32.30;39.60;;;;;;5082180;28;20195;-78
2022/07/18 09:55:57;;;;;;;2.53;1.45;;;32.20;40.50;;;;;;5078153;28;20190;-80
2022/07/18 09:58:25;;;;;;;2.30;1.17;;;31.80;41.00;;;;;;5073783;28;20433;-78
2022/07/18 10:00:52;;;;;;;2.72;1.50;;;31.90;41.50;;;;;;5074846;28;20204;-79
2022/07/18 10:03:20;;;;;;;2.75;1.40;;;32.00;41.50;;;;;;5070634;28;20203;-79
2022/07/18 10:05:48;;;;;;;2.83;1.63;;;32.10;39.60;;;;;;5072272;28;20278;-79
2022/07/18 10:08:19;;;;;;;2.22;1.10;;;32.10;39.80;;;;;;5074722;28;20186;-79
2022/07/18 10:10:47;;;;;;;11.82;5.82;;;32.50;38.50;;;;;;5077760;28;20229;-78
2022/07/18 10:13:14;;;;;;;3.15;1.50;;;32.70;39.80;;;;;;5073076;28;20189;-79
2022/07/18 10:15:43;;;;;;;5.72;1.30;;;32.40;38.40;;;;;;5074429;28;20241;-79
2022/07/18 10:18:13;;;;;;;2.05;1.35;;;32.50;38.20;;;;;;5082215;28;20624;-78
2022/07/18 10:20:44;;;;;;;2.25;1.10;;;32.30;38.10;;;;;;5073366;28;20200;-79
2022/07/18 10:23:20;;;;;;;9.75;1.98;;;32.10;39.50;;;;;;5079377;28;20271;-79
2022/07/18 10:26:12;;;;;;;2.80;1.05;;;32.10;40.70;;;;;;5077581;28;20192;-79
2022/07/18 10:28:58;;;;;;;2.20;1.00;;;31.90;40.50;;;;;;5066892;28;20184;-78
2022/07/18 10:31:38;;;;;;;2.13;1.17;;;31.30;40.80;;;;;;5064414;28;20255;-78
2022/07/18 10:34:07;;;;;;;3.30;1.40;;;31.10;41.80;;;;;;5077113;28;20203;-78
2022/07/18 10:36:54;;;;;;;3.35;1.40;;;31.10;41.30;;;;;;5075146;28;20172;-78
2022/07/18 10:39:31;;;;;;;2.05;0.90;;;31.10;41.00;;;;;;5058352;28;20222;-79
2022/07/18 10:42:02;;;;;;;2.00;1.25;;;31.20;41.50;;;;;;5075598;28;20177;-79
2022/07/18 10:44:31;;;;;;;3.05;1.48;;;31.20;41.40;;;;;;5073201;28;20202;-78
2022/07/18 10:47:02;;;;;;;4.30;1.30;;;31.10;41.50;;;;;;5072673;28;20199;-79
2022/07/18 10:49:49;;;;;;;2.80;1.40;;;30.90;40.60;;;;;;5072941;28;20571;-78
2022/07/18 10:52:27;;;;;;;3.15;1.58;;;30.80;40.80;;;;;;5066746;28;20178;-78
2022/07/18 10:55:02;;;;;;;4.13;1.38;;;30.80;41.60;;;;;;5079897;28;20574;-78
2022/07/18 10:57:39;;;;;;;2.35;1.17;;;30.90;40.60;;;;;;5081431;28;20168;-79
2022/07/18 11:00:12;;;;;;;2.83;1.30;;;30.60;42.20;;;;;;5077680;28;20196;-79
2022/07/18 11:02:38;;;;;;;2.08;1.23;;;30.60;42.30;;;;;;5080262;28;20590;-78
2022/07/18 11:05:26;;;;;;;3.08;1.10;;;30.80;42.10;;;;;;5076069;28;20196;-77
2022/07/18 11:07:58;;;;;;;2.38;1.20;;;30.90;41.80;;;;;;5075265;28;20422;-79
2022/07/18 11:13:29;;;;;;;2.22;1.45;;;30.80;41.50;;;;;;5072893;28;20188;-79
2022/07/18 11:16:05;;;;;;;2.45;1.33;;;31.00;40.60;;;;;;5073912;28;20200;-79
2022/07/18 11:18:32;;;;;;;4.35;1.10;;;30.90;40.00;;;;;;5072992;28;20733;-79
2022/07/18 11:20:57;;;;;;;2.17;1.17;;;31.00;38.90;;;;;;5076858;28;20197;-76
2022/07/18 11:23:27;;;;;;;1.98;1.00;;;31.10;39.50;;;;;;5083214;28;20285;-78
2022/07/18 11:25:57;;;;;;;2.58;1.48;;;30.90;40.90;;;;;;5081997;28;20176;-78
2022/07/18 11:28:27;;;;;;;2.30;1.35;;;30.90;42.50;;;;;;5073757;28;20185;-79
2022/07/18 11:31:07;;;;;;;2.55;1.33;;;31.00;40.70;;;;;;5071839;28;20180;-79
2022/07/18 11:33:36;;;;;;;2.50;1.10;;;30.90;42.00;;;;;;5077710;28;20219;-78
2022/07/18 11:36:12;;;;;;;4.53;1.30;;;31.00;40.80;;;;;;5075094;28;20529;-78
2022/07/18 11:38:47;;;;;;;2.25;1.17;;;31.20;41.10;;;;;;5076132;28;20200;-78
2022/07/18 11:41:14;;;;;;;3.67;1.30;;;31.40;39.10;;;;;;5072000;28;20624;-79
2022/07/18 11:43:40;;;;;;;5.82;0.90;;;31.30;39.90;;;;;;5073672;28;20689;-78
2022/07/18 11:46:09;;;;;;;6.22;1.38;;;31.30;40.80;;;;;;5073462;28;20200;-79
2022/07/18 11:48:36;;;;;;;3.00;1.35;;;31.10;39.40;;;;;;5088399;28;20180;-79
2022/07/18 11:51:14;;;;;;;3.67;1.23;;;31.10;42.40;;;;;;5076470;28;20208;-78
2022/07/18 11:53:47;;;;;;;2.00;0.80;;;31.10;41.40;;;;;;5089571;28;20804;-80
2022/07/18 11:56:14;;;;;;;2.85;1.30;;;31.10;40.30;;;;;;5080336;28;20211;-80
2022/07/18 11:58:42;;;;;;;1.92;1.00;;;31.40;40.90;;;;;;5079684;28;20194;-80
2022/07/18 12:01:09;;;;;;;2.55;1.17;;;31.50;40.40;;;;;;5081734;28;20204;-80
2022/07/18 12:03:37;;;;;;;2.40;1.20;;;31.70;38.80;;;;;;5072447;28;20613;-80
2022/07/18 12:06:18;;;;;;;2.20;1.15;;;31.70;39.40;;;;;;5073582;28;20415;-81
2022/07/18 12:08:47;;;;;;;2.22;0.95;;;31.40;39.10;;;;;;5077382;28;20203;-80
2022/07/18 12:11:17;;;;;;;4.47;1.08;;;31.60;38.00;;;;;;5085473;28;20238;-80
2022/07/18 12:13:50;;;;;;;2.72;1.10;;;31.60;39.00;;;;;;5086806;28;20196;-80
2022/07/18 12:16:34;;;;;;;6.10;1.52;;;31.80;38.00;;;;;;5071946;28;20181;-79
2022/07/18 12:19:08;;;;;;;8.52;1.38;;;31.70;38.70;;;;;;5068306;28;20584;-79
2022/07/18 12:21:51;;;;;;;3.13;1.20;;;31.70;38.20;;;;;;5079329;28;20176;-75
2022/07/18 12:24:33;;;;;;;2.72;1.33;;;31.60;41.40;;;;;;5086071;28;20202;-80
2022/07/18 12:27:19;;;;;;;2.15;1.25;;;31.70;38.50;;;;;;5074535;28;20240;-80
2022/07/18 12:30:05;;;;;;;4.82;1.58;;;32.10;38.10;;;;;;5064755;28;20684;-80
2022/07/18 12:32:43;;;;;;;1.75;0.93;;;32.00;37.80;;;;;;5076432;28;20176;-79
2022/07/18 12:35:15;;;;;;;2.13;1.20;;;32.00;39.30;;;;;;5074945;28;20192;-79
2022/07/18 12:37:41;;;;;;;2.10;0.98;;;32.30;39.00;;;;;;5076061;28;20606;-79
2022/07/18 12:40:11;;;;;;;2.92;1.40;;;32.40;38.70;;;;;;5074592;28;20636;-79
2022/07/18 12:42:41;;;;;;;2.10;1.10;;;32.30;37.70;;;;;;5074732;28;20184;-79
2022/07/18 12:45:12;;;;;;;2.58;1.13;;;32.40;37.30;;;;;;5071140;28;20765;-79
2022/07/18 12:47:37;;;;;;;3.42;1.42;;;32.30;38.30;;;;;;5057991;28;20184;-78
2022/07/18 12:50:05;;;;;;;3.00;1.10;;;32.30;38.50;;;;;;5067655;28;20547;-78
2022/07/18 12:52:32;;;;;;;1.85;1.00;;;32.30;38.30;;;;;;5081398;28;20240;-79